METAR LOCAUX

2021/10/21 12:30 LFST 211230Z AUTO 21019KT 9999 BKN052 BKN068 16/04 Q1013 BECMG 24015G25KT
2021/10/21 12:20 EDSB 211220Z 24011KT 210V270 9999 SCT047 15/06 Q1012
2021/10/21 12:30 LFGA 211230Z AUTO 22012KT 9999 FEW058 SCT078 17/05 Q1013
www.noaa.gov

Ne pas utiliser pour préparer ou effectuer un vol: Utilisez la documentation officielle disponible sur aviation.meteo.fr (Aéroweb)


"Le soleil du matin ne dure pas forcément toute la journée."

Animation satellite IR

Meteociel.fr

"Derrière chaque nuage se cache le ciel bleu."

Radar pluie

Infoclimat.fr

"Si tu veux l’arc-en-ciel, tu dois supporter la pluie."
Dolly Parton

Nébulosité (octas)

Meteociel.fr

"Le soleil est souvent obscurci par les nuages et la raison par les passions."
Démophile

Impacts de foudre

www.meteo60.fr

"Celui que frappe la foudre n'entend pas le tonnerre."

Vigilance météo

vigilance-meteo.fr

"Tout nuage n'enfante pas une tempête."
William Shakespeare

TAF locaux

2021/10/21 12:21 TAF LFST 211100Z 2112/2212 24015G25KT 9999 SCT040 BECMG 2117/2119 32008KT TEMPO 2119/2121 32015G30KT 4000 SHRA FEW030CB
2021/10/21 12:27 TAF EDSB 211100Z 2112/2212 23015G25KT 9999 BKN030 TEMPO 2117/2121 SHRA BKN020TCU PROB30 TEMPO 2118/2120 TSRA BKN020CB BECMG 2118/2120 24008KT BECMG 2120/2122 VRB03KT TEMPO 2202/2207 1200 BCFG BECMG 2208/2210 22008KT
www.noaa.gov

Ne pas utiliser pour préparer ou effectuer un vol: Utilisez la documentation officielle disponible sur aviation.meteo.fr (Aéroweb)


"Les jours où le ciel est gris, le soleil n'a pas disparu à tout jamais."
Arnaud Desjardins

Prévisions 7 jours


Meteoblue.com

"Quand les crapauds chantent, le beau temps s'avance !"